Time;durP1;ratioP1;P1;durP2;ratioP2;P2;SDS_P1;SDS_P2;PMS_P1;PMS_P2;Temp;Humidity;BMP_temperature;BMP_pressure;BME280_temperature;BME280_humidity;BME280_pressure;Samples;Min_cycle;Max_cycle;Signal;HPM_P1;HPM_P2
2023/10/02 00:00:43;;;;;;;19.42;11.73;;;;;;;14.55;100.00;97387.88;5041160;28;20266;-52
2023/10/02 00:03:10;;;;;;;19.48;11.68;;;;;;;14.54;100.00;97396.00;5040551;28;20215;-51
2023/10/02 00:05:41;;;;;;;19.38;11.57;;;;;;;14.51;100.00;97394.50;5039694;28;20539;-52
2023/10/02 00:08:07;;;;;;;18.33;11.52;;;;;;;14.49;100.00;97393.78;5041089;28;20895;-53
2023/10/02 00:10:34;;;;;;;21.65;12.65;;;;;;;14.48;100.00;97402.78;5040464;28;20826;-50
2023/10/02 00:12:59;;;;;;;18.15;11.77;;;;;;;14.44;100.00;97406.72;5041096;28;20223;-51
2023/10/02 00:15:26;;;;;;;21.52;11.57;;;;;;;14.42;100.00;97403.34;5040805;28;20690;-53
2023/10/02 00:17:52;;;;;;;21.10;11.50;;;;;;;14.44;100.00;97398.72;5041080;28;20912;-52
2023/10/02 00:20:21;;;;;;;21.10;12.55;;;;;;;14.46;100.00;97404.72;5040754;28;20199;-53
2023/10/02 00:22:50;;;;;;;20.48;12.02;;;;;;;14.42;100.00;97398.03;5040959;28;20200;-53
2023/10/02 00:25:19;;;;;;;18.77;12.25;;;;;;;14.43;100.00;97397.03;5041520;28;20259;-52
2023/10/02 00:27:48;;;;;;;18.42;11.85;;;;;;;14.39;100.00;97396.50;5041310;28;20212;-51
2023/10/02 00:30:20;;;;;;;19.42;11.48;;;;;;;14.35;100.00;97400.44;5041173;28;20215;-52
2023/10/02 00:32:47;;;;;;;22.93;11.63;;;;;;;14.28;100.00;97395.81;5041205;28;20666;-54
2023/10/02 00:35:14;;;;;;;16.38;11.05;;;;;;;14.24;100.00;97389.97;5041338;28;20208;-51
2023/10/02 00:37:45;;;;;;;17.67;12.03;;;;;;;14.25;100.00;97396.97;5041250;28;20222;-52
2023/10/02 00:40:20;;;;;;;15.60;10.50;;;;;;;14.23;100.00;97390.97;5041727;28;20209;-52
2023/10/02 00:42:47;;;;;;;16.80;10.70;;;;;;;14.23;100.00;97388.31;5041730;28;20192;-52
2023/10/02 00:45:14;;;;;;;18.27;11.10;;;;;;;14.24;100.00;97395.28;5041572;28;20200;-52
2023/10/02 00:47:45;;;;;;;18.55;11.20;;;;;;;14.22;100.00;97399.94;5041223;28;20207;-52
2023/10/02 00:50:16;;;;;;;18.97;11.93;;;;;;;14.18;100.00;97408.34;5041385;28;20203;-52
2023/10/02 00:52:45;;;;;;;17.23;11.97;;;;;;;14.11;100.00;97396.59;5041424;28;20214;-52
2023/10/02 00:55:12;;;;;;;19.35;11.45;;;;;;;14.05;100.00;97405.19;5042170;28;20227;-52
2023/10/02 00:57:41;;;;;;;18.43;11.63;;;;;;;14.04;100.00;97398.19;5041092;28;20222;-53
2023/10/02 01:00:17;;;;;;;18.17;10.67;;;;;;;14.00;100.00;97397.63;5041480;28;20203;-51
2023/10/02 01:02:46;;;;;;;17.50;11.77;;;;;;;13.96;100.00;97398.91;5041876;28;20198;-51
2023/10/02 01:05:16;;;;;;;20.33;11.17;;;;;;;13.96;100.00;97398.91;5041349;28;20207;-52
2023/10/02 01:07:44;;;;;;;17.30;11.33;;;;;;;13.95;100.00;97392.78;5041585;28;20591;-51
2023/10/02 01:10:17;;;;;;;18.25;11.40;;;;;;;13.94;100.00;97398.22;5041257;28;20652;-52
2023/10/02 01:12:49;;;;;;;17.98;10.98;;;;;;;13.91;100.00;97399.34;5041343;28;20533;-51
2023/10/02 01:15:19;;;;;;;19.38;12.15;;;;;;;13.88;100.00;97399.66;5041389;28;20670;-53
2023/10/02 01:17:47;;;;;;;18.17;11.10;;;;;;;13.86;100.00;97396.28;5041341;28;20282;-52
2023/10/02 01:20:20;;;;;;;20.05;11.70;;;;;;;13.78;100.00;97395.34;5040663;28;20736;-51
2023/10/02 01:22:51;;;;;;;18.77;11.00;;;;;;;13.81;100.00;97398.56;5041400;28;20261;-54
2023/10/02 01:25:23;;;;;;;18.73;11.63;;;;;;;13.78;100.00;97403.31;5041110;28;20197;-51
2023/10/02 01:27:51;;;;;;;19.73;11.18;;;;;;;13.74;100.00;97396.63;5041601;28;20203;-53
2023/10/02 01:30:20;;;;;;;17.97;11.23;;;;;;;13.71;100.00;97395.06;5040842;28;20582;-53
2023/10/02 01:35:36;;;;;;;16.57;10.60;;;;;;;13.69;100.00;97389.06;5040084;28;20636;-51
2023/10/02 01:38:06;;;;;;;16.30;10.83;;;;;;;13.71;100.00;97388.94;5044266;28;20235;-51
2023/10/02 01:40:34;;;;;;;18.77;11.23;;;;;;;13.72;100.00;97391.44;5044914;28;20199;-51
2023/10/02 01:43:12;;;;;;;17.37;11.33;;;;;;;13.69;100.00;97388.22;5044909;28;20207;-51
2023/10/02 01:45:41;;;;;;;16.47;10.77;;;;;;;13.66;100.00;97391.16;5044040;28;20818;-52
2023/10/02 01:48:08;;;;;;;16.87;11.10;;;;;;;13.61;100.00;97390.75;5043459;28;20633;-51
2023/10/02 01:50:35;;;;;;;16.87;11.70;;;;;;;13.65;100.00;97397.47;5043463;28;20845;-52
2023/10/02 01:53:05;;;;;;;18.50;11.00;;;;;;;13.69;100.00;97398.84;5044384;28;20298;-52
2023/10/02 01:55:35;;;;;;;19.50;11.87;;;;;;;13.67;100.00;97396.34;5044224;28;20200;-51
2023/10/02 02:00:58;;;;;;;18.03;11.27;;;;;;;13.58;100.00;97397.19;5078590;28;21077;-53
2023/10/02 02:03:28;;;;;;;19.33;11.67;;;;;;;13.57;100.00;97400.81;5079147;28;20229;-51
2023/10/02 02:05:55;;;;;;;21.47;12.53;;;;;;;13.54;100.00;97395.81;5078989;28;20205;-52
2023/10/02 02:08:23;;;;;;;17.77;11.93;;;;;;;13.54;100.00;97395.81;5078990;28;20217;-52
2023/10/02 02:10:54;;;;;;;19.77;11.80;;;;;;;13.49;100.00;97392.75;5078625;28;20213;-53
2023/10/02 02:13:21;;;;;;;21.53;11.80;;;;;;;13.46;100.00;97390.38;5078181;28;20198;-52
2023/10/02 02:15:51;;;;;;;16.90;11.83;;;;;;;13.46;100.00;97403.69;5079241;28;20207;-52
2023/10/02 02:18:20;;;;;;;20.27;12.20;;;;;;;13.45;100.00;97402.00;5078444;28;20205;-53
2023/10/02 02:20:58;;;;;;;21.13;13.00;;;;;;;13.43;100.00;97398.63;5078400;28;20230;-51
2023/10/02 02:23:26;;;;;;;21.60;13.27;;;;;;;13.43;100.00;97393.31;5078434;28;20208;-53
2023/10/02 02:25:53;;;;;;;21.23;13.30;;;;;;;13.39;100.00;97399.91;5079093;28;20202;-53
2023/10/02 02:28:19;;;;;;;22.80;12.33;;;;;;;13.35;100.00;97401.16;5081021;28;20217;-52
2023/10/02 02:30:47;;;;;;;20.13;13.13;;;;;;;13.32;100.00;97401.47;5081701;28;20238;-53
2023/10/02 02:33:14;;;;;;;19.37;13.13;;;;;;;13.34;100.00;97410.09;5081224;28;20209;-51
2023/10/02 02:35:44;;;;;;;21.25;13.35;;;;;;;13.35;100.00;97398.50;5080320;28;20206;-52
2023/10/02 02:38:14;;;;;;;23.27;13.50;;;;;;;13.31;100.00;97399.78;5079387;28;20198;-52
2023/10/02 02:40:41;;;;;;;24.17;13.57;;;;;;;13.30;100.00;97408.72;5079094;28;20218;-52
2023/10/02 02:43:13;;;;;;;23.30;13.27;;;;;;;13.29;100.00;97396.41;5079028;28;20206;-52
2023/10/02 02:45:39;;;;;;;22.73;13.53;;;;;;;13.31;100.00;97410.41;5078475;28;20222;-52
2023/10/02 02:48:10;;;;;;;20.30;13.33;;;;;;;13.29;100.00;97397.25;5077741;28;20222;-52
2023/10/02 02:50:37;;;;;;;24.50;14.07;;;;;;;13.31;100.00;97405.09;5077794;28;20213;-54
2023/10/02 02:55:46;;;;;;;22.00;13.90;;;;;;;13.22;100.00;97395.28;5076321;28;20220;-51
2023/10/02 02:58:13;;;;;;;24.37;14.70;;;;;;;13.21;100.00;97401.59;5077678;28;20207;-51
2023/10/02 03:00:40;;;;;;;24.80;14.97;;;;;;;13.18;100.00;97400.03;5077402;28;20238;-53
2023/10/02 03:03:29;;;;;;;26.37;15.43;;;;;;;13.17;100.00;97400.19;5077668;28;20256;-54
2023/10/02 03:05:58;;;;;;;25.83;14.47;;;;;;;13.17;100.00;97402.84;5077001;28;20302;-52
2023/10/02 03:08:37;;;;;;;30.13;15.53;;;;;;;13.16;100.00;97401.16;5077501;28;20206;-51
2023/10/02 03:11:06;;;;;;;26.83;15.83;;;;;;;13.14;100.00;97403.16;5070876;28;20209;-51
2023/10/02 03:13:34;;;;;;;24.37;14.97;;;;;;;13.16;100.00;97395.84;5063833;28;20199;-52
2023/10/02 03:16:08;;;;;;;25.33;15.73;;;;;;;13.17;100.00;97400.19;5064382;28;20212;-52
2023/10/02 03:18:36;;;;;;;25.50;15.53;;;;;;;13.15;100.00;97396.81;5063562;28;20195;-51
2023/10/02 03:21:14;;;;;;;31.43;16.77;;;;;;;13.12;100.00;97400.63;5063772;28;20245;-51
2023/10/02 03:23:42;;;;;;;31.70;17.03;;;;;;;13.14;100.00;97400.47;5064097;28;20205;-53
2023/10/02 03:26:26;;;;;;;27.90;16.80;;;;;;;13.12;100.00;97399.78;5063880;28;20282;-53
2023/10/02 03:29:00;;;;;;;35.30;17.43;;;;;;;13.12;100.00;97402.44;5063620;28;20585;-52
2023/10/02 03:31:34;;;;;;;27.90;16.07;;;;;;;13.15;100.00;97396.81;5064109;28;20195;-51
2023/10/02 03:34:03;;;;;;;29.83;16.87;;;;;;;13.15;100.00;97396.81;5063265;28;20251;-51
2023/10/02 03:36:29;;;;;;;30.57;17.27;;;;;;;13.13;100.00;97396.16;5064257;28;20527;-54
2023/10/02 03:38:57;;;;;;;29.90;16.57;;;;;;;13.08;100.00;97385.91;5063548;28;20199;-53
2023/10/02 03:41:44;;;;;;;31.33;17.30;;;;;;;13.05;100.00;97393.31;5063337;28;20632;-52
2023/10/02 03:44:11;;;;;;;30.40;17.17;;;;;;;13.04;100.00;97386.34;5064035;28;20206;-53
2023/10/02 03:46:40;;;;;;;30.23;16.70;;;;;;;13.06;100.00;97387.03;5063295;28;20260;-54
2023/10/02 03:49:06;;;;;;;29.10;17.27;;;;;;;13.05;100.00;97386.19;5062921;28;20253;-53
2023/10/02 03:51:40;;;;;;;34.13;17.43;;;;;;;13.06;100.00;97389.69;5063788;28;20352;-52
2023/10/02 03:54:18;;;;;;;31.93;18.43;;;;;;;13.06;100.00;97389.69;5063109;28;20998;-53
2023/10/02 03:56:47;;;;;;;32.23;18.33;;;;;;;13.05;100.00;97395.97;5063139;28;20202;-52
2023/10/02 03:59:16;;;;;;;30.67;17.83;;;;;;;13.01;100.00;97390.09;5063690;28;20274;-51
2023/10/02 04:01:47;;;;;;;34.60;19.13;;;;;;;13.01;100.00;97386.59;5065510;28;20199;-52
2023/10/02 04:04:21;;;;;;;32.73;18.47;;;;;;;12.95;100.00;97383.53;5063923;28;20297;-51
2023/10/02 04:06:50;;;;;;;31.27;18.50;;;;;;;12.95;100.00;97388.00;5063231;28;20677;-53
2023/10/02 04:09:21;;;;;;;33.20;18.50;;;;;;;12.92;100.00;97389.13;5062635;28;20202;-52
2023/10/02 04:11:50;;;;;;;30.70;17.93;;;;;;;12.91;100.00;97386.59;5062646;28;20669;-53
2023/10/02 04:14:31;;;;;;;32.67;18.70;;;;;;;12.91;100.00;97382.13;5062545;28;20195;-52
2023/10/02 04:17:01;;;;;;;31.43;17.23;;;;;;;12.91;100.00;97387.44;5062791;28;20194;-53
2023/10/02 04:19:27;;;;;;;34.80;19.60;;;;;;;12.88;100.00;97384.22;5062353;28;20247;-52
2023/10/02 04:21:56;;;;;;;33.87;18.10;;;;;;;12.85;100.00;97379.22;5062468;28;20276;-52
2023/10/02 04:24:24;;;;;;;31.43;18.20;;;;;;;12.89;100.00;97383.25;5061235;28;20644;-52
2023/10/02 04:26:54;;;;;;;35.43;18.73;;;;;;;12.86;100.00;97379.06;5062906;28;20195;-52
2023/10/02 04:29:28;;;;;;;32.63;17.83;;;;;;;12.82;100.00;97382.97;5063383;28;20206;-52
2023/10/02 04:32:14;;;;;;;32.43;17.93;;;;;;;12.81;100.00;97381.31;5063500;28;20199;-51
2023/10/02 04:34:46;;;;;;;32.50;19.40;;;;;;;12.80;100.00;97379.63;5062507;28;20225;-53
2023/10/02 04:37:19;;;;;;;35.67;18.03;;;;;;;12.81;100.00;97383.13;5063383;28;20257;-52
2023/10/02 04:40:13;;;;;;;32.00;18.30;;;;;;;12.79;100.00;97380.59;5063083;28;20210;-53
2023/10/02 04:45:21;;;;;;;31.17;18.07;;;;;;;12.77;100.00;97389.66;5061957;28;20263;-53
2023/10/02 04:47:48;;;;;;;28.73;16.63;;;;;;;12.78;100.00;97389.53;5062875;28;20203;-52
2023/10/02 04:53:04;;;;;;;30.00;16.23;;;;;;;12.79;100.00;97393.84;5062433;28;20202;-54
2023/10/02 04:55:41;;;;;;;30.97;17.47;;;;;;;12.74;100.00;97393.44;5062546;28;20202;-53
2023/10/02 04:58:12;;;;;;;28.57;16.70;;;;;;;12.73;100.00;97391.75;5063023;28;20286;-53
2023/10/02 05:01:07;;;;;;;31.87;16.97;;;;;;;12.75;100.00;97388.97;5062479;28;20230;-52
2023/10/02 05:03:25;;;;;;;30.73;16.87;;;;;;;12.73;100.00;97394.41;5062335;28;20214;-52
2023/10/02 05:05:53;;;;;;;28.97;16.37;;;;;;;12.76;100.00;97402.09;5062672;28;20195;-52
2023/10/02 05:08:21;;;;;;;28.37;16.20;;;;;;;12.76;100.00;97399.44;5062618;28;20190;-53
2023/10/02 05:10:56;;;;;;;30.77;16.50;;;;;;;12.74;100.00;97396.09;5062490;28;20230;-53
2023/10/02 05:16:11;;;;;;;30.00;17.00;;;;;;;12.78;100.00;97397.50;5062095;28;20217;-59
2023/10/02 05:18:36;;;;;;;30.27;16.13;;;;;;;12.79;100.00;97396.50;5060889;28;20205;-55
2023/10/02 05:21:04;;;;;;;28.10;17.10;;;;;;;12.79;100.00;97396.50;5062180;28;20230;-53
2023/10/02 05:23:30;;;;;;;27.97;17.50;;;;;;;12.80;100.00;97398.19;5062004;28;20198;-54
2023/10/02 05:26:02;;;;;;;28.37;16.77;;;;;;;12.78;100.00;97399.31;5062090;28;20564;-52
2023/10/02 05:28:42;;;;;;;27.00;16.00;;;;;;;12.83;100.00;97392.59;5061416;28;20635;-54
2023/10/02 05:31:10;;;;;;;29.67;16.80;;;;;;;12.81;100.00;97394.56;5062217;28;20210;-53
2023/10/02 05:33:37;;;;;;;27.80;15.80;;;;;;;12.86;100.00;97397.63;5061205;28;20252;-53
2023/10/02 05:36:08;;;;;;;28.60;16.63;;;;;;;12.87;100.00;97401.97;5063471;28;20207;-51
2023/10/02 05:38:36;;;;;;;30.43;18.27;;;;;;;12.85;100.00;97403.94;5063838;28;20305;-51
2023/10/02 05:41:03;;;;;;;29.83;16.83;;;;;;;12.90;100.00;97398.19;5062618;28;20232;-51
2023/10/02 05:43:31;;;;;;;27.93;16.00;;;;;;;12.90;100.00;97406.16;5062552;28;20627;-54
2023/10/02 05:45:58;;;;;;;31.17;16.47;;;;;;;12.86;100.00;97405.59;5062407;28;20222;-53
2023/10/02 05:48:37;;;;;;;28.93;16.07;;;;;;;12.87;100.00;97399.31;5062944;28;20251;-52
2023/10/02 05:51:09;;;;;;;28.27;16.20;;;;;;;12.91;100.00;97410.50;5066841;28;20273;-52
2023/10/02 05:53:37;;;;;;;29.77;17.50;;;;;;;12.97;100.00;97413.44;5066245;28;20662;-51
2023/10/02 05:56:12;;;;;;;29.80;16.90;;;;;;;13.00;100.00;97408.84;5068302;28;20199;-53
2023/10/02 05:58:41;;;;;;;29.50;17.17;;;;;;;13.03;100.00;97416.53;5066406;28;20532;-53
2023/10/02 06:01:18;;;;;;;30.33;17.37;;;;;;;13.07;100.00;97413.47;5067003;28;20218;-54
2023/10/02 06:03:53;;;;;;;32.63;16.83;;;;;;;13.08;100.00;97415.13;5065618;28;20294;-52
2023/10/02 06:06:21;;;;;;;31.30;17.27;;;;;;;13.14;100.00;97416.41;5067086;28;20535;-54
2023/10/02 06:08:51;;;;;;;29.60;16.83;;;;;;;13.16;100.00;97417.09;5064601;28;20602;-53
2023/10/02 06:11:31;;;;;;;29.70;16.63;;;;;;;13.18;100.00;97412.50;5062015;28;20199;-57
2023/10/02 06:14:09;;;;;;;26.90;16.67;;;;;;;13.21;100.00;97417.53;5062436;28;20223;-53
2023/10/02 06:16:37;;;;;;;30.17;18.03;;;;;;;13.24;100.00;97417.25;5062103;28;20193;-51
2023/10/02 06:19:06;;;;;;;30.83;18.00;;;;;;;13.30;100.00;97427.31;5060641;28;20214;-52
2023/10/02 06:21:45;;;;;;;30.70;17.43;;;;;;;13.30;100.00;97424.66;5066254;28;20218;-52
2023/10/02 06:24:12;;;;;;;32.73;17.63;;;;;;;13.33;100.00;97427.03;5061996;28;20639;-51
2023/10/02 06:26:57;;;;;;;30.87;18.00;;;;;;;13.38;100.00;97428.28;5061443;28;20202;-52
2023/10/02 06:29:24;;;;;;;29.50;17.87;;;;;;;13.39;100.00;97437.91;5061569;28;20206;-51
2023/10/02 06:31:58;;;;;;;32.00;17.67;;;;;;;13.66;100.00;97433.69;5060618;28;20199;-53
2023/10/02 06:34:26;;;;;;;35.28;19.27;;;;;;;14.23;100.00;97424.72;5060747;28;20202;-51
2023/10/02 06:37:02;;;;;;;32.95;19.85;;;;;;;14.42;100.00;97424.63;5061146;28;20226;-50
2023/10/02 06:39:29;;;;;;;34.50;19.77;;;;;;;14.37;100.00;97427.75;5061278;28;20216;-52
2023/10/02 06:42:04;;;;;;;38.17;20.63;;;;;;;14.52;100.00;97433.44;5062185;28;20242;-50
2023/10/02 06:44:34;;;;;;;38.15;22.10;;;;;;;14.40;100.00;97429.28;5062283;28;20210;-52
2023/10/02 06:47:00;;;;;;;37.25;21.02;;;;;;;14.39;100.00;97430.25;5063425;28;20253;-53
2023/10/02 06:49:27;;;;;;;34.00;19.58;;;;;;;14.36;100.00;97430.56;5064876;28;20206;-52
2023/10/02 06:51:54;;;;;;;39.53;21.77;;;;;;;14.37;100.00;97432.25;5064347;28;20647;-51
2023/10/02 06:54:23;;;;;;;38.88;21.52;;;;;;;14.38;100.00;97434.75;5064371;28;20214;-52
2023/10/02 06:56:49;;;;;;;38.38;21.35;;;;;;;14.49;100.00;97431.03;5066211;28;20643;-52
2023/10/02 06:59:17;;;;;;;38.97;21.42;;;;;;;14.58;100.00;97435.50;5064159;28;20289;-51
2023/10/02 07:04:29;;;;;;;40.42;21.63;;;;;;;14.68;100.00;97438.09;5064334;28;20736;-51
2023/10/02 07:07:02;;;;;;;37.20;21.25;;;;;;;14.80;100.00;97443.06;5065345;28;20201;-51
2023/10/02 07:09:33;;;;;;;39.20;21.38;;;;;;;14.81;100.00;97442.06;5064671;28;20202;-53
2023/10/02 07:12:08;;;;;;;37.75;20.77;;;;;;;14.85;100.00;97440.78;5064989;28;20221;-52
2023/10/02 07:14:36;;;;;;;39.20;21.65;;;;;;;14.88;100.00;97436.97;5064471;28;20737;-52
2023/10/02 07:17:12;;;;;;;41.88;21.40;;;;;;;14.92;100.00;97441.88;5064145;28;20206;-51
2023/10/02 07:19:39;;;;;;;38.75;21.33;;;;;;;14.99;100.00;97443.91;5063650;28;20575;-52
2023/10/02 07:22:11;;;;;;;40.53;21.83;;;;;;;15.09;100.00;97439.38;5064486;28;20246;-51
2023/10/02 07:24:40;;;;;;;35.92;21.40;;;;;;;15.08;100.00;97443.03;5065155;28;20282;-52
2023/10/02 07:27:22;;;;;;;38.25;22.05;;;;;;;15.08;100.00;97432.38;5064615;28;20203;-52
2023/10/02 07:29:51;;;;;;;41.80;21.80;;;;;;;15.11;100.00;97432.06;5065373;28;20198;-53
2023/10/02 07:32:18;;;;;;;40.08;22.60;;;;;;;15.20;100.00;97428.47;5065177;28;20260;-52
2023/10/02 07:34:46;;;;;;;37.38;21.38;;;;;;;15.24;100.00;97433.34;5065564;28;20206;-51
2023/10/02 07:37:13;;;;;;;36.30;21.30;;;;;;;15.35;100.00;97432.28;5066404;28;20264;-52
2023/10/02 07:39:40;;;;;;;40.17;22.67;;;;;;;15.33;100.00;97440.44;5065692;28;20540;-53
2023/10/02 07:42:10;;;;;;;38.67;21.63;;;;;;;15.38;100.00;97440.81;5065057;28;20214;-51
2023/10/02 07:44:37;;;;;;;41.83;23.70;;;;;;;15.48;100.00;97435.38;5065912;28;20231;-53
2023/10/02 07:47:10;;;;;;;42.72;23.25;;;;;;;15.57;100.00;97439.00;5065049;28;20259;-51
2023/10/02 07:49:37;;;;;;;43.33;23.08;;;;;;;15.63;100.00;97433.03;5065200;28;20209;-52
2023/10/02 07:52:06;;;;;;;40.50;23.25;;;;;;;15.68;100.00;97434.25;5065418;28;20225;-51
2023/10/02 07:54:44;;;;;;;42.78;23.88;;;;;;;15.76;100.00;97442.34;5065122;28;20866;-51
2023/10/02 07:57:13;;;;;;;43.85;24.33;;;;;;;15.82;100.00;97433.69;5065271;28;20191;-53
2023/10/02 07:59:43;;;;;;;44.95;24.88;;;;;;;15.88;100.00;97434.88;5065134;28;20315;-51
2023/10/02 08:02:23;;;;;;;40.20;24.92;;;;;;;15.94;100.00;97437.75;5064458;28;20732;-53
2023/10/02 08:04:51;;;;;;;43.95;26.30;;;;;;;15.99;100.00;97433.78;5065213;28;20199;-53
2023/10/02 08:07:18;;;;;;;39.75;24.10;;;;;;;16.07;100.00;97433.84;5064887;28;20218;-52
2023/10/02 08:09:47;;;;;;;41.80;24.48;;;;;;;16.11;100.00;97427.22;5064042;28;20622;-51
2023/10/02 08:12:29;;;;;;;42.38;24.10;;;;;;;16.16;100.00;97436.41;5064151;28;20253;-51
2023/10/02 08:14:57;;;;;;;39.17;23.90;;;;;;;16.23;100.00;97437.44;5064684;28;20577;-51
2023/10/02 08:17:27;;;;;;;46.33;25.00;;;;;;;16.25;100.00;97430.13;5064088;28;20229;-51
2023/10/02 08:19:58;;;;;;;38.88;23.50;;;;;;;16.31;100.00;97437.50;5063173;28;20214;-53
2023/10/02 08:22:27;;;;;;;40.35;22.30;;;;;;;16.36;100.00;97423.66;5064698;28;20203;-51
2023/10/02 08:24:56;;;;;;;42.95;23.55;;;;;;;16.50;100.00;97431.06;5064776;28;20199;-51
2023/10/02 08:27:22;;;;;;;43.72;23.52;;;;;;;16.49;100.00;97432.06;5064522;28;20234;-52
2023/10/02 08:29:48;;;;;;;41.47;24.25;;;;;;;16.53;100.00;97429.91;5064375;28;20199;-52
2023/10/02 08:32:28;;;;;;;43.50;23.25;;;;;;;16.64;100.00;97430.50;5063914;28;20198;-52
2023/10/02 08:34:56;;;;;;;44.45;23.77;;;;;;;16.66;100.00;97431.16;5062719;28;20226;-51
2023/10/02 08:37:23;;;;;;;40.88;22.58;;;;;;;16.78;100.00;97427.19;5063493;28;20203;-51
2023/10/02 08:39:51;;;;;;;40.08;22.98;;;;;;;16.88;100.00;97424.38;5062718;28;20683;-53
2023/10/02 08:42:18;;;;;;;42.20;24.05;;;;;;;16.97;100.00;97426.06;5062529;28;20402;-52
2023/10/02 08:44:45;;;;;;;42.70;23.00;;;;;;;17.04;100.00;97427.06;5061523;28;20210;-51
2023/10/02 08:47:24;;;;;;;40.92;23.55;;;;;;;17.13;100.00;97430.63;5063290;28;20202;-51
2023/10/02 08:50:01;;;;;;;42.08;23.27;;;;;;;17.23;100.00;97425.94;5062848;28;20706;-52
2023/10/02 08:52:38;;;;;;;42.17;23.73;;;;;;;17.38;100.00;97422.47;5064341;28;20218;-52
2023/10/02 08:55:33;;;;;;;41.15;23.88;;;;;;;17.53;100.00;97411.94;5062273;28;20375;-51
2023/10/02 08:58:15;;;;;;;44.90;24.88;;;;;;;17.69;100.00;97417.31;5063436;28;20614;-52
2023/10/02 09:01:01;;;;;;;42.53;23.85;;;;;;;17.87;100.00;97417.13;5061895;28;20245;-50
2023/10/02 09:03:27;;;;;;;40.53;22.58;;;;;;;18.10;100.00;97423.44;5062275;28;20195;-51
2023/10/02 09:06:24;;;;;;;44.88;24.65;;;;;;;18.36;100.00;97415.16;5062593;28;20222;-50
2023/10/02 09:09:13;;;;;;;42.92;24.70;;;;;;;18.60;100.00;97417.75;5062093;28;20199;-51
2023/10/02 09:11:34;;;;;;;44.35;24.13;;;;;;;18.91;100.00;97420.47;5061851;28;20203;-53
2023/10/02 09:14:12;;;;;;;41.95;24.08;;;;;;;19.21;100.00;97410.72;5062171;28;20234;-51
2023/10/02 09:16:38;;;;;;;42.22;24.48;;;;;;;19.48;100.00;97417.44;5061804;28;20198;-51
2023/10/02 09:19:28;;;;;;;45.33;25.98;;;;;;;19.84;100.00;97407.72;5064204;28;20202;-51
2023/10/02 09:22:06;;;;;;;42.28;23.88;;;;;;;20.08;100.00;97406.66;5064060;28;20226;-51
2023/10/02 09:24:35;;;;;;;43.15;25.25;;;;;;;20.37;100.00;97404.00;5063534;28;20248;-51
2023/10/02 09:29:45;;;;;;;45.92;25.58;;;;;;;20.74;93.29;97394.97;5063189;28;20199;-51
2023/10/02 09:32:21;;;;;;;40.70;24.20;;;;;;;20.93;93.99;97388.19;5062328;28;20766;-51
2023/10/02 09:35:08;;;;;;;45.15;25.67;;;;;;;21.43;93.16;97396.19;5062051;28;20206;-52
2023/10/02 09:37:36;;;;;;;50.20;25.50;;;;;;;21.61;89.27;97385.78;5062027;28;20237;-51
2023/10/02 09:40:14;;;;;;;45.33;25.50;;;;;;;21.71;88.88;97385.47;5062111;28;20265;-52
2023/10/02 09:42:45;;;;;;;48.70;26.65;;;;;;;21.82;84.75;97379.56;5061861;28;20219;-52
2023/10/02 09:45:15;;;;;;;44.53;25.35;;;;;;;22.13;84.30;97380.00;5062056;28;20533;-51
2023/10/02 09:47:43;;;;;;;41.63;25.88;;;;;;;22.26;82.64;97381.94;5063070;28;20233;-51
2023/10/02 09:50:12;;;;;;;45.65;26.30;;;;;;;22.43;82.17;97372.50;5060941;28;20206;-51
2023/10/02 09:52:47;;;;;;;40.95;24.77;;;;;;;22.59;81.15;97372.19;5062658;28;20191;-54
2023/10/02 09:55:25;;;;;;;44.95;24.60;;;;;;;22.83;81.82;97375.41;5061324;28;20608;-51
2023/10/02 09:57:54;;;;;;;39.28;23.67;;;;;;;23.23;83.43;97363.69;5061433;28;20203;-50
2023/10/02 10:00:37;;;;;;;46.03;26.40;;;;;;;23.26;79.15;97369.50;5061894;28;20283;-53
2023/10/02 10:03:30;;;;;;;43.13;25.35;;;;;;;23.22;77.91;97362.03;5060708;28;20220;-51
2023/10/02 10:06:17;;;;;;;38.63;24.13;;;;;;;23.03;78.05;97362.78;5061186;28;20289;-51
2023/10/02 10:09:25;;;;;;;38.25;23.13;;;;;;;23.54;79.51;97357.72;5061567;28;20212;-51
2023/10/02 10:14:40;;;;;;;37.95;23.55;;;;;;;23.79;78.51;97348.81;5061106;28;20229;-51
2023/10/02 10:17:13;;;;;;;40.95;24.38;;;;;;;23.79;77.89;97338.00;5061636;28;20200;-52
2023/10/02 10:19:41;;;;;;;39.75;24.80;;;;;;;24.01;78.91;97335.06;5060463;28;20198;-53
2023/10/02 10:22:38;;;;;;;38.38;23.88;;;;;;;24.23;79.66;97336.50;5063698;28;20237;-52
2023/10/02 10:25:44;;;;;;;41.67;24.02;;;;;;;24.39;78.62;97330.63;5064470;28;21475;-52
2023/10/02 10:28:27;;;;;;;40.90;25.00;;;;;;;24.66;76.13;97329.47;5064954;28;20209;-52
2023/10/02 10:30:56;;;;;;;39.17;23.35;;;;;;;24.81;76.25;97326.50;5065159;28;20203;-51
2023/10/02 10:33:41;;;;;;;43.90;25.63;;;;;;;24.74;71.36;97318.41;5064825;28;20542;-50
2023/10/02 10:36:33;;;;;;;38.28;23.20;;;;;;;25.02;72.92;97328.06;5065138;28;20257;-54
2023/10/02 10:39:30;;;;;;;41.67;23.83;;;;;;;24.86;73.02;97323.19;5065840;28;20209;-54
2023/10/02 10:41:57;;;;;;;39.17;23.80;;;;;;;24.80;71.53;97318.59;5064575;28;20559;-52
2023/10/02 10:44:32;;;;;;;38.65;24.52;;;;;;;25.07;73.25;97312.03;5065024;28;20205;-52
2023/10/02 10:47:03;;;;;;;37.08;23.77;;;;;;;25.15;72.05;97317.19;5065014;28;20205;-52
2023/10/02 10:49:52;;;;;;;37.63;23.60;;;;;;;25.30;71.12;97314.97;5064265;28;20577;-53
2023/10/02 10:52:34;;;;;;;36.58;22.77;;;;;;;25.69;70.32;97303.84;5064769;28;20202;-52
2023/10/02 10:55:04;;;;;;;38.35;23.63;;;;;;;26.04;69.32;97303.34;5063797;28;20257;-51
2023/10/02 10:57:37;;;;;;;36.55;23.00;;;;;;;26.47;67.75;97305.97;5065306;28;20271;-53
2023/10/02 11:02:52;;;;;;;38.90;24.42;;;;;;;26.70;64.93;97289.84;5064301;28;20218;-52
2023/10/02 11:05:20;;;;;;;35.55;23.17;;;;;;;27.39;66.30;97288.44;5064225;28;20275;-51
2023/10/02 11:07:47;;;;;;;35.53;22.02;;;;;;;27.85;66.01;97288.50;5064582;28;20222;-52
2023/10/02 11:10:15;;;;;;;34.92;21.98;;;;;;;28.08;64.12;97285.81;5064564;28;20226;-51
2023/10/02 11:12:54;;;;;;;33.15;20.77;;;;;;;28.22;61.54;97278.25;5063670;28;20207;-51
2023/10/02 11:18:18;;;;;;;33.58;21.80;;;;;;;28.55;64.71;97281.13;5064558;28;20283;-52
2023/10/02 11:20:49;;;;;;;32.20;21.10;;;;;;;28.84;60.69;97281.19;5063658;28;20195;-51
2023/10/02 11:23:22;;;;;;;33.92;22.08;;;;;;;28.80;58.93;97285.44;5065483;28;20242;-52
2023/10/02 11:25:53;;;;;;;33.63;21.52;;;;;;;28.76;54.00;97273.38;5065984;28;20210;-53
2023/10/02 11:28:29;;;;;;;31.95;20.25;;;;;;;29.32;55.14;97275.28;5065050;28;20211;-53
2023/10/02 11:31:30;;;;;;;31.60;20.17;;;;;;;29.08;56.63;97275.38;5064723;28;20497;-52
2023/10/02 11:34:03;;;;;;;33.13;20.98;;;;;;;29.06;55.97;97261.16;5063809;28;20275;-54
2023/10/02 11:36:33;;;;;;;36.42;21.45;;;;;;;29.15;54.88;97258.88;5064557;28;20206;-52
2023/10/02 11:39:07;;;;;;;34.28;20.42;;;;;;;29.18;53.63;97261.09;5065740;28;20875;-53
2023/10/02 11:41:34;;;;;;;33.30;21.65;;;;;;;29.19;57.19;97249.16;5064284;28;20222;-52
2023/10/02 11:44:01;;;;;;;35.22;23.38;;;;;;;28.94;53.61;97248.69;5063515;28;20542;-53
2023/10/02 11:46:29;;;;;;;39.10;24.98;;;;;;;28.80;55.39;97242.72;5063361;28;20203;-54
2023/10/02 11:48:55;;;;;;;40.63;24.60;;;;;;;28.89;56.32;97243.13;5063339;28;20198;-52
2023/10/02 11:51:25;;;;;;;41.75;24.25;;;;;;;28.73;56.64;97233.03;5064506;28;20207;-53
2023/10/02 11:53:52;;;;;;;35.80;23.08;;;;;;;28.66;56.07;97233.97;5063195;28;20634;-52
2023/10/02 11:56:20;;;;;;;37.22;23.15;;;;;;;28.70;52.77;97225.38;5063264;28;20340;-52
2023/10/02 11:58:46;;;;;;;37.65;24.92;;;;;;;28.08;55.32;97226.00;5063862;28;20218;-51
2023/10/02 12:01:15;;;;;;;35.47;23.27;;;;;;;28.00;55.83;97225.50;5062916;28;20206;-51
2023/10/02 12:03:42;;;;;;;34.67;22.38;;;;;;;27.56;56.43;97213.38;5062822;28;20233;-52